Time;durP1;ratioP1;P1;durP2;ratioP2;P2;SDS_P1;SDS_P2;PMS_P1;PMS_P2;Temp;Humidity;BMP_temperature;BMP_pressure;BME280_temperature;BME280_humidity;BME280_pressure;Samples;Min_cycle;Max_cycle;Signal;HPM_P1;HPM_P2
2024/02/24 00:01:27;;;;;;;10.80;10.10;;;3.40;99.90;;;;;;4880642;29;20693;-78
2024/02/24 00:03:54;;;;;;;10.93;10.13;;;3.40;99.90;;;;;;4880086;29;20201;-78
2024/02/24 00:06:21;;;;;;;10.67;9.97;;;3.40;99.90;;;;;;4880483;29;20204;-77
2024/02/24 00:08:48;;;;;;;11.57;10.67;;;3.40;99.90;;;;;;4872721;29;20746;-78
2024/02/24 00:11:14;;;;;;;10.33;9.63;;;3.40;99.90;;;;;;4881372;29;20186;-78
2024/02/24 00:13:43;;;;;;;11.20;10.40;;;3.40;99.90;;;;;;4880050;29;20261;-78
2024/02/24 00:16:09;;;;;;;11.23;10.33;;;3.30;99.90;;;;;;4880436;29;20257;-78
2024/02/24 00:18:36;;;;;;;11.00;10.10;;;3.30;99.90;;;;;;4881055;29;20253;-77
2024/02/24 00:21:03;;;;;;;11.13;10.23;;;3.40;99.90;;;;;;4880901;29;20374;-78
2024/02/24 00:23:30;;;;;;;11.63;10.73;;;3.40;99.90;;;;;;4880825;29;20369;-78
2024/02/24 00:25:57;;;;;;;10.90;10.00;;;3.50;99.90;;;;;;4880158;29;20213;-78
2024/02/24 00:28:23;;;;;;;11.03;10.23;;;3.50;99.90;;;;;;4881088;29;20240;-78
2024/02/24 00:30:52;;;;;;;11.00;10.20;;;3.50;99.90;;;;;;4879386;29;20249;-78
2024/02/24 00:33:18;;;;;;;12.00;11.07;;;3.40;99.90;;;;;;4880458;29;20304;-78
2024/02/24 00:35:45;;;;;;;11.13;10.30;;;3.30;99.90;;;;;;4880867;29;20202;-77
2024/02/24 00:38:12;;;;;;;10.83;10.03;;;3.30;99.90;;;;;;4879946;29;20212;-78
2024/02/24 00:40:39;;;;;;;11.27;10.47;;;3.20;99.90;;;;;;4881248;29;20221;-78
2024/02/24 00:43:06;;;;;;;11.03;10.03;;;3.20;99.90;;;;;;4880958;29;20225;-79
2024/02/24 00:45:33;;;;;;;11.10;10.23;;;3.20;99.90;;;;;;4880556;29;20205;-78
2024/02/24 00:48:01;;;;;;;11.17;10.07;;;3.20;99.90;;;;;;4879677;29;20231;-78
2024/02/24 00:50:28;;;;;;;10.90;9.93;;;3.10;99.90;;;;;;4879293;29;20198;-78
2024/02/24 00:52:56;;;;;;;12.17;11.07;;;3.10;99.90;;;;;;4879456;29;20225;-78
2024/02/24 00:55:23;;;;;;;11.60;10.60;;;3.00;99.90;;;;;;4879864;29;20214;-78
2024/02/24 00:57:49;;;;;;;10.93;10.13;;;3.10;99.90;;;;;;4879666;29;20205;-78
2024/02/24 01:00:17;;;;;;;11.70;10.90;;;3.00;99.90;;;;;;4880424;29;20201;-78
2024/02/24 01:02:44;;;;;;;11.83;10.80;;;3.00;99.90;;;;;;4879525;29;20585;-77
2024/02/24 01:05:12;;;;;;;11.77;10.70;;;3.00;99.90;;;;;;4880631;29;20205;-78
2024/02/24 01:07:39;;;;;;;11.77;10.63;;;2.90;99.90;;;;;;4879469;29;20642;-78
2024/02/24 01:10:08;;;;;;;12.00;10.97;;;2.80;99.90;;;;;;4880384;29;20234;-78
2024/02/24 01:12:35;;;;;;;12.00;11.00;;;2.80;99.90;;;;;;4879247;29;20217;-78
2024/02/24 01:15:01;;;;;;;12.43;11.37;;;2.70;99.90;;;;;;4878970;29;20201;-78
2024/02/24 01:17:28;;;;;;;11.67;10.87;;;2.60;99.90;;;;;;4878762;29;20280;-77
2024/02/24 01:19:55;;;;;;;11.80;10.90;;;2.60;99.90;;;;;;4878961;29;20201;-78
2024/02/24 01:22:25;;;;;;;12.03;10.90;;;2.50;99.90;;;;;;4879854;29;20284;-78
2024/02/24 01:24:52;;;;;;;12.30;11.20;;;2.50;99.90;;;;;;4878751;29;20205;-77
2024/02/24 01:27:19;;;;;;;12.27;11.27;;;2.40;99.90;;;;;;4880752;29;20494;-78
2024/02/24 01:29:46;;;;;;;12.10;11.00;;;2.30;99.90;;;;;;4879560;29;20206;-78
2024/02/24 01:32:13;;;;;;;11.63;10.73;;;2.30;99.90;;;;;;4879456;29;20271;-78
2024/02/24 01:34:39;;;;;;;12.77;11.50;;;2.40;99.90;;;;;;4878177;29;20499;-78
2024/02/24 01:37:06;;;;;;;12.40;11.30;;;2.40;99.90;;;;;;4879636;29;20198;-77
2024/02/24 01:39:35;;;;;;;12.50;11.30;;;2.50;99.90;;;;;;4877790;29;20240;-78
2024/02/24 01:42:02;;;;;;;12.60;11.57;;;2.50;99.90;;;;;;4879255;29;20229;-78
2024/02/24 01:44:29;;;;;;;12.67;11.43;;;2.60;99.90;;;;;;4878118;29;20266;-78
2024/02/24 01:46:56;;;;;;;12.03;11.03;;;2.60;99.90;;;;;;4877909;29;20205;-78
2024/02/24 01:49:22;;;;;;;13.63;12.40;;;2.60;99.90;;;;;;4877718;29;20232;-78
2024/02/24 01:51:49;;;;;;;12.60;11.60;;;2.50;99.90;;;;;;4878979;29;20225;-78
2024/02/24 01:54:16;;;;;;;13.17;12.10;;;2.50;99.90;;;;;;4878858;29;20243;-78
2024/02/24 01:56:46;;;;;;;12.30;11.40;;;2.50;99.90;;;;;;4877979;29;20669;-78
2024/02/24 01:59:13;;;;;;;12.83;11.60;;;2.50;99.90;;;;;;4877834;29;20206;-77
2024/02/24 02:01:41;;;;;;;12.17;11.27;;;2.60;99.90;;;;;;4878007;29;20724;-78
2024/02/24 02:04:08;;;;;;;12.30;11.27;;;2.70;99.90;;;;;;4879062;29;20253;-78
2024/02/24 02:06:35;;;;;;;11.60;10.80;;;2.80;99.90;;;;;;4878745;29;20646;-77
2024/02/24 02:09:02;;;;;;;11.60;10.50;;;3.00;99.90;;;;;;4877331;29;20216;-78
2024/02/24 02:11:29;;;;;;;11.10;10.27;;;3.10;99.90;;;;;;4893529;29;20214;-78
2024/02/24 02:13:57;;;;;;;10.73;10.00;;;3.20;99.90;;;;;;4902364;29;20188;-78
2024/02/24 02:16:24;;;;;;;11.60;10.70;;;3.30;99.90;;;;;;4902624;29;20208;-77
2024/02/24 02:18:51;;;;;;;12.10;11.20;;;3.30;99.90;;;;;;4901979;29;20185;-78
2024/02/24 02:21:20;;;;;;;11.80;11.00;;;3.30;99.90;;;;;;4893753;29;20270;-78
2024/02/24 02:23:49;;;;;;;12.07;11.13;;;3.30;99.90;;;;;;4881324;29;20202;-78
2024/02/24 02:26:18;;;;;;;13.83;11.90;;;3.30;99.90;;;;;;4885056;29;20661;-78
2024/02/24 02:28:45;;;;;;;13.17;12.07;;;3.30;99.90;;;;;;4877492;29;20205;-78
2024/02/24 02:31:11;;;;;;;12.60;11.40;;;3.30;99.90;;;;;;4879165;29;20225;-78
2024/02/24 02:33:38;;;;;;;13.33;12.13;;;3.30;99.90;;;;;;4879117;29;20689;-78
2024/02/24 02:36:06;;;;;;;12.50;11.53;;;3.40;99.90;;;;;;4879069;29;20661;-78
2024/02/24 02:38:33;;;;;;;12.20;11.20;;;3.40;99.90;;;;;;4877489;29;20229;-78
2024/02/24 02:41:02;;;;;;;12.50;11.40;;;3.40;99.90;;;;;;4878568;29;20201;-78
2024/02/24 02:43:29;;;;;;;12.20;11.10;;;3.40;99.90;;;;;;4879385;29;20229;-78
2024/02/24 02:45:56;;;;;;;11.17;10.37;;;3.50;99.90;;;;;;4877438;29;20232;-78
2024/02/24 02:48:22;;;;;;;11.53;10.60;;;3.50;99.90;;;;;;4878695;29;20210;-78
2024/02/24 02:50:49;;;;;;;11.40;10.60;;;3.50;99.90;;;;;;4878556;29;20685;-78
2024/02/24 02:53:16;;;;;;;11.13;10.40;;;3.50;99.90;;;;;;4879076;29;20504;-78
2024/02/24 02:55:43;;;;;;;11.27;10.47;;;3.50;99.90;;;;;;4877656;29;20721;-78
2024/02/24 02:58:11;;;;;;;11.03;10.23;;;3.50;99.90;;;;;;4877630;29;20205;-78
2024/02/24 03:00:38;;;;;;;11.50;10.60;;;3.50;99.90;;;;;;4878609;29;20202;-78
2024/02/24 03:03:05;;;;;;;11.33;10.43;;;3.50;99.90;;;;;;4878197;29;20648;-77
2024/02/24 03:05:32;;;;;;;10.70;9.90;;;3.50;99.90;;;;;;4878790;29;20216;-78
2024/02/24 03:07:59;;;;;;;10.80;10.10;;;3.50;99.90;;;;;;4878869;29;20198;-78
2024/02/24 03:10:25;;;;;;;10.37;9.67;;;3.60;99.90;;;;;;4878291;29;20205;-78
2024/02/24 03:12:52;;;;;;;10.90;10.20;;;3.60;99.90;;;;;;4877055;29;20293;-77
2024/02/24 03:15:20;;;;;;;10.70;9.93;;;3.60;99.90;;;;;;4877264;29;20216;-78
2024/02/24 03:17:47;;;;;;;11.20;10.30;;;3.60;99.90;;;;;;4878326;29;20291;-78
2024/02/24 03:20:14;;;;;;;10.97;10.27;;;3.70;99.90;;;;;;4878869;29;20193;-78
2024/02/24 03:22:41;;;;;;;11.03;10.23;;;3.80;99.90;;;;;;4877053;29;20233;-77
2024/02/24 03:25:09;;;;;;;11.17;10.40;;;3.80;99.90;;;;;;4877047;29;20445;-77
2024/02/24 03:27:35;;;;;;;11.27;10.57;;;3.80;99.90;;;;;;4877497;29;20216;-78
2024/02/24 03:30:02;;;;;;;11.00;10.30;;;3.70;99.90;;;;;;4878629;29;20530;-78
2024/02/24 03:32:30;;;;;;;11.10;10.40;;;3.60;99.90;;;;;;4903581;23;20240;-78
2024/02/24 03:34:57;;;;;;;11.50;10.33;;;3.50;99.90;;;;;;4880189;29;20239;-78
2024/02/24 03:37:25;;;;;;;11.23;10.33;;;3.50;99.90;;;;;;4880704;29;20213;-78
2024/02/24 03:39:52;;;;;;;10.67;9.90;;;3.40;99.90;;;;;;4881807;29;20236;-77
2024/02/24 03:42:18;;;;;;;11.10;10.40;;;3.30;99.90;;;;;;4880079;29;20696;-78
2024/02/24 03:44:45;;;;;;;11.53;10.70;;;3.20;99.90;;;;;;4880220;29;20664;-77
2024/02/24 03:47:12;;;;;;;11.20;10.40;;;3.20;99.90;;;;;;4881436;29;20229;-77
2024/02/24 03:49:41;;;;;;;10.80;10.10;;;3.20;99.90;;;;;;4880281;29;20257;-77
2024/02/24 03:52:08;;;;;;;11.23;10.47;;;3.10;99.90;;;;;;4881346;29;20224;-78
2024/02/24 03:54:35;;;;;;;11.10;10.30;;;3.10;99.90;;;;;;4879808;29;20209;-78
2024/02/24 03:57:02;;;;;;;10.70;10.10;;;3.00;99.90;;;;;;4879958;29;20217;-78
2024/02/24 03:59:27;;;;;;;11.10;10.30;;;2.90;99.90;;;;;;4879751;29;20205;-77
2024/02/24 04:01:54;;;;;;;11.17;10.47;;;2.90;99.90;;;;;;4881304;29;20274;-77
2024/02/24 04:04:21;;;;;;;11.13;10.43;;;2.80;99.90;;;;;;4881438;29;20230;-77
2024/02/24 04:06:49;;;;;;;10.53;9.93;;;2.90;99.90;;;;;;4879770;29;20208;-77
2024/02/24 04:09:16;;;;;;;10.97;10.07;;;2.80;99.90;;;;;;4880013;29;20661;-77
2024/02/24 04:11:43;;;;;;;10.37;9.67;;;2.80;99.90;;;;;;4881294;29;20303;-77
2024/02/24 04:14:10;;;;;;;10.90;10.20;;;2.70;99.90;;;;;;4880126;29;20209;-77
2024/02/24 04:16:37;;;;;;;11.00;9.93;;;2.80;99.90;;;;;;4881702;29;20284;-78
2024/02/24 04:19:03;;;;;;;10.70;9.90;;;2.80;99.90;;;;;;4883323;29;20257;-77
2024/02/24 04:21:32;;;;;;;10.20;9.60;;;2.80;99.90;;;;;;4883084;29;20209;-78
2024/02/24 04:24:00;;;;;;;11.03;10.23;;;2.80;99.90;;;;;;4881039;29;20208;-78
2024/02/24 04:26:27;;;;;;;11.07;10.27;;;2.80;99.90;;;;;;4878013;29;20202;-78
2024/02/24 04:28:53;;;;;;;10.80;9.80;;;2.80;99.90;;;;;;4880595;29;20225;-78
2024/02/24 04:31:20;;;;;;;10.37;9.77;;;2.90;99.90;;;;;;4879490;29;20234;-78
2024/02/24 04:33:47;;;;;;;10.23;9.63;;;2.90;99.90;;;;;;4878248;29;20207;-78
2024/02/24 04:36:14;;;;;;;10.50;9.80;;;2.90;99.90;;;;;;4879727;29;20213;-78
2024/02/24 04:38:40;;;;;;;10.77;10.13;;;2.90;99.90;;;;;;4875061;29;20733;-78
2024/02/24 04:41:09;;;;;;;10.90;10.00;;;2.90;99.90;;;;;;4878384;29;20236;-78
2024/02/24 04:43:36;;;;;;;10.80;10.00;;;2.90;99.90;;;;;;4879416;29;20281;-78
2024/02/24 04:46:02;;;;;;;10.77;10.07;;;3.00;99.90;;;;;;4877409;29;20205;-78
2024/02/24 04:48:29;;;;;;;10.80;10.10;;;3.00;99.90;;;;;;4880558;29;20674;-78
2024/02/24 04:50:57;;;;;;;10.67;9.97;;;3.10;99.90;;;;;;4879171;29;20678;-78
2024/02/24 04:53:24;;;;;;;10.40;9.70;;;3.20;99.90;;;;;;4872763;29;20225;-78
2024/02/24 04:55:51;;;;;;;11.00;10.20;;;3.20;99.90;;;;;;4871808;29;20220;-78
2024/02/24 04:58:19;;;;;;;11.07;10.27;;;3.30;99.90;;;;;;4883633;29;20219;-78
2024/02/24 05:00:46;;;;;;;11.50;10.60;;;3.30;99.90;;;;;;4881068;29;20214;-78
2024/02/24 05:03:13;;;;;;;10.40;9.70;;;3.40;99.90;;;;;;4875225;29;20223;-78
2024/02/24 05:05:41;;;;;;;10.30;9.70;;;3.40;99.90;;;;;;4879620;29;20224;-78
2024/02/24 05:08:08;;;;;;;10.50;9.80;;;3.50;99.90;;;;;;4892134;29;20205;-78
2024/02/24 05:10:34;;;;;;;10.63;10.03;;;3.50;99.90;;;;;;4897444;29;20228;-78
2024/02/24 05:13:01;;;;;;;10.30;9.70;;;3.50;99.90;;;;;;4890870;29;20822;-78
2024/02/24 05:15:29;;;;;;;10.40;9.70;;;3.50;99.90;;;;;;4891680;29;20281;-78
2024/02/24 05:17:56;;;;;;;11.17;10.47;;;3.60;99.90;;;;;;4891783;29;20258;-78
2024/02/24 05:20:23;;;;;;;11.10;10.40;;;3.60;99.90;;;;;;4885804;29;20213;-77
2024/02/24 05:22:50;;;;;;;11.40;10.50;;;3.70;99.90;;;;;;4875236;29;20257;-77
2024/02/24 05:25:17;;;;;;;10.87;10.17;;;3.70;99.90;;;;;;4879585;29;20206;-77
2024/02/24 05:27:44;;;;;;;10.60;9.90;;;3.70;99.90;;;;;;4880393;29;20206;-78
2024/02/24 05:30:11;;;;;;;10.83;10.07;;;3.80;99.90;;;;;;4878524;29;20588;-77
2024/02/24 05:32:39;;;;;;;10.77;10.07;;;3.80;99.90;;;;;;4879415;29;20282;-77
2024/02/24 05:35:06;;;;;;;11.10;10.30;;;3.80;99.90;;;;;;4880137;29;20206;-77
2024/02/24 05:37:33;;;;;;;10.87;10.17;;;3.90;99.90;;;;;;4880730;29;20730;-78
2024/02/24 05:40:00;;;;;;;10.70;10.00;;;3.90;99.90;;;;;;4879708;29;20213;-76
2024/02/24 05:42:27;;;;;;;10.10;9.50;;;3.90;99.90;;;;;;4881343;29;20578;-78
2024/02/24 05:44:54;;;;;;;10.60;9.90;;;3.90;99.90;;;;;;4880306;29;20199;-77
2024/02/24 05:47:21;;;;;;;10.37;9.77;;;4.00;99.90;;;;;;4880913;29;20208;-77
2024/02/24 05:49:49;;;;;;;10.63;9.93;;;4.00;99.90;;;;;;4880785;29;20208;-78
2024/02/24 05:52:17;;;;;;;10.47;9.80;;;4.00;99.90;;;;;;4877228;29;20610;-78
2024/02/24 05:54:44;;;;;;;10.37;9.70;;;4.10;99.90;;;;;;4877924;29;20212;-78
2024/02/24 05:57:10;;;;;;;10.07;9.47;;;4.10;99.90;;;;;;4878031;29;20506;-78
2024/02/24 05:59:37;;;;;;;10.20;9.60;;;4.10;99.90;;;;;;4878612;29;20203;-78
2024/02/24 06:02:04;;;;;;;10.30;9.60;;;4.20;99.90;;;;;;4878752;29;20278;-78
2024/02/24 06:04:31;;;;;;;10.23;9.63;;;4.20;99.90;;;;;;4877803;29;20231;-78
2024/02/24 06:06:59;;;;;;;10.40;9.60;;;4.20;99.90;;;;;;4877088;29;20202;-78
2024/02/24 06:09:26;;;;;;;10.60;9.97;;;4.30;99.90;;;;;;4878012;29;20633;-78
2024/02/24 06:11:52;;;;;;;10.03;9.43;;;4.20;99.90;;;;;;4878085;29;20259;-78
2024/02/24 06:14:19;;;;;;;10.50;9.87;;;4.30;99.90;;;;;;4878669;29;20207;-77
2024/02/24 06:16:46;;;;;;;11.00;10.30;;;4.30;99.90;;;;;;4877998;29;20247;-78
2024/02/24 06:19:13;;;;;;;10.50;9.80;;;4.30;99.90;;;;;;4875361;29;20694;-79
2024/02/24 06:21:40;;;;;;;10.60;10.00;;;4.40;99.90;;;;;;4877795;29;20652;-77
2024/02/24 06:24:08;;;;;;;10.37;9.67;;;4.40;99.90;;;;;;4877932;29;20229;-76
2024/02/24 06:26:35;;;;;;;10.97;10.27;;;4.40;99.90;;;;;;4878938;29;20210;-76
2024/02/24 06:29:02;;;;;;;10.63;10.03;;;4.40;99.90;;;;;;4878039;29;20706;-77
2024/02/24 06:31:28;;;;;;;10.60;10.00;;;4.50;99.90;;;;;;4872721;29;20301;-77
2024/02/24 06:33:55;;;;;;;10.80;10.10;;;4.50;99.90;;;;;;4880992;29;20268;-77
2024/02/24 06:36:22;;;;;;;11.17;10.27;;;4.50;99.90;;;;;;4877595;29;20210;-77
2024/02/24 06:38:49;;;;;;;10.83;10.13;;;4.50;99.90;;;;;;4879655;29;20277;-77
2024/02/24 06:41:18;;;;;;;11.20;10.50;;;4.50;99.90;;;;;;4879079;29;20215;-76
2024/02/24 06:43:44;;;;;;;11.60;10.90;;;4.50;99.90;;;;;;4879901;29;20250;-77
2024/02/24 06:46:12;;;;;;;10.63;10.03;;;4.50;99.90;;;;;;4881623;29;20203;-77
2024/02/24 06:48:39;;;;;;;10.67;10.07;;;4.50;99.90;;;;;;4878551;29;20244;-78
2024/02/24 06:51:06;;;;;;;11.00;10.40;;;4.50;99.90;;;;;;4878224;29;20236;-79
2024/02/24 06:53:33;;;;;;;10.67;10.07;;;4.50;99.90;;;;;;4879635;29;20278;-78
2024/02/24 06:56:05;;;;;;;10.60;10.00;;;4.50;99.90;;;;;;4878768;29;20216;-78
2024/02/24 06:58:33;;;;;;;11.03;10.33;;;4.50;99.90;;;;;;4879604;29;20221;-78
2024/02/24 07:01:00;;;;;;;10.70;10.10;;;4.50;99.90;;;;;;4879200;29;20212;-78
2024/02/24 07:03:27;;;;;;;10.80;10.20;;;4.60;99.90;;;;;;4878922;29;20254;-79
2024/02/24 07:05:54;;;;;;;10.83;10.23;;;4.60;99.90;;;;;;4879587;29;20204;-79
2024/02/24 07:08:20;;;;;;;11.20;10.40;;;4.60;99.90;;;;;;4879263;29;20741;-78
2024/02/24 07:10:47;;;;;;;10.83;10.20;;;4.60;99.90;;;;;;4879694;29;20635;-79
2024/02/24 07:13:14;;;;;;;10.80;10.10;;;4.70;99.90;;;;;;4880547;29;20646;-78
2024/02/24 07:15:42;;;;;;;10.60;10.00;;;4.70;99.90;;;;;;4879092;29;20268;-79
2024/02/24 07:18:09;;;;;;;10.57;9.97;;;4.80;99.90;;;;;;4879658;29;20580;-79
2024/02/24 07:20:35;;;;;;;10.93;10.23;;;4.80;99.90;;;;;;4878713;29;20231;-79
2024/02/24 07:23:03;;;;;;;10.63;10.10;;;4.80;99.90;;;;;;4878768;29;20229;-78
2024/02/24 07:25:30;;;;;;;10.63;10.03;;;4.80;99.90;;;;;;4880116;29;20205;-78
2024/02/24 07:27:57;;;;;;;11.03;10.33;;;4.90;99.90;;;;;;4879387;29;20218;-79
2024/02/24 07:30:23;;;;;;;10.97;10.37;;;4.90;99.90;;;;;;4879028;29;20243;-78
2024/02/24 07:32:51;;;;;;;10.73;10.13;;;5.00;99.90;;;;;;4879601;29;20236;-79
2024/02/24 07:35:18;;;;;;;10.70;10.10;;;5.00;99.90;;;;;;4880379;29;20207;-78
2024/02/24 07:37:45;;;;;;;10.70;10.10;;;5.00;99.90;;;;;;4875038;29;20221;-77
2024/02/24 07:40:12;;;;;;;10.80;10.20;;;5.10;99.90;;;;;;4879923;29;20204;-78
2024/02/24 07:42:39;;;;;;;10.70;10.10;;;5.20;99.90;;;;;;4878460;29;20663;-78
2024/02/24 07:45:08;;;;;;;10.10;9.50;;;5.20;99.90;;;;;;4880243;29;20204;-77
2024/02/24 07:47:35;;;;;;;10.87;10.07;;;5.20;99.90;;;;;;4879344;29;20235;-77
2024/02/24 07:50:03;;;;;;;10.60;9.90;;;5.30;99.90;;;;;;4878627;29;20216;-78
2024/02/24 07:52:30;;;;;;;10.30;9.70;;;5.30;99.90;;;;;;4877544;29;20224;-77
2024/02/24 07:54:57;;;;;;;10.23;9.63;;;5.30;99.90;;;;;;4872981;29;20266;-77
2024/02/24 07:57:23;;;;;;;10.00;9.40;;;5.30;99.90;;;;;;4887497;29;20344;-77
2024/02/24 07:59:50;;;;;;;10.00;9.40;;;5.10;99.90;;;;;;4875881;29;20205;-77
2024/02/24 08:02:17;;;;;;;10.23;9.63;;;5.20;99.90;;;;;;4878477;29;20240;-78
2024/02/24 08:04:44;;;;;;;10.83;10.03;;;5.20;99.90;;;;;;4878974;29;20228;-76
2024/02/24 08:07:12;;;;;;;10.07;9.53;;;5.20;99.90;;;;;;4880755;29;20200;-77
2024/02/24 08:09:38;;;;;;;10.00;9.50;;;5.20;99.90;;;;;;4881484;29;20189;-76
2024/02/24 08:12:06;;;;;;;10.10;9.43;;;5.30;99.90;;;;;;4876775;29;20739;-76
2024/02/24 08:14:33;;;;;;;10.40;9.70;;;5.40;99.90;;;;;;4884961;29;20205;-77
2024/02/24 08:16:59;;;;;;;10.30;9.70;;;5.80;99.90;;;;;;4887388;29;20237;-78
2024/02/24 08:19:26;;;;;;;10.30;9.70;;;5.90;99.90;;;;;;4879807;29;20308;-77
2024/02/24 08:21:53;;;;;;;10.13;9.53;;;6.00;99.90;;;;;;4880463;29;20233;-77
2024/02/24 08:24:21;;;;;;;10.50;9.80;;;6.20;99.90;;;;;;4881373;29;20217;-76
2024/02/24 08:26:48;;;;;;;10.60;10.00;;;6.20;99.90;;;;;;4882286;29;20209;-77
2024/02/24 08:29:15;;;;;;;10.27;9.60;;;6.40;99.90;;;;;;4880918;29;20234;-76
2024/02/24 08:31:43;;;;;;;10.70;10.10;;;6.90;99.90;;;;;;4880029;29;20229;-76
2024/02/24 08:34:11;;;;;;;10.20;9.60;;;7.10;99.90;;;;;;4881881;29;20201;-76
2024/02/24 08:36:38;;;;;;;10.33;9.73;;;7.20;99.90;;;;;;4875906;29;20202;-77
2024/02/24 08:39:05;;;;;;;12.27;10.83;;;7.30;99.90;;;;;;4882433;29;20197;-79
2024/02/24 08:41:35;;;;;;;10.90;10.20;;;7.80;99.90;;;;;;4882462;29;20220;-76
2024/02/24 08:44:03;;;;;;;10.60;10.00;;;8.30;99.90;;;;;;4881845;29;20290;-77
2024/02/24 08:46:29;;;;;;;10.57;9.97;;;8.80;99.90;;;;;;4881329;29;20203;-78
2024/02/24 08:48:57;;;;;;;11.10;10.50;;;9.20;99.90;;;;;;4880932;29;20203;-78
2024/02/24 08:51:25;;;;;;;10.80;10.20;;;9.70;99.90;;;;;;4881445;29;20746;-81
2024/02/24 08:53:51;;;;;;;10.80;10.20;;;10.00;99.90;;;;;;4876605;29;20201;-82
2024/02/24 08:56:19;;;;;;;9.60;9.10;;;10.20;99.90;;;;;;4870717;29;20838;-79
2024/02/24 08:58:47;;;;;;;9.47;8.97;;;10.50;99.90;;;;;;4869162;29;20234;-79
2024/02/24 09:01:14;;;;;;;9.30;8.80;;;10.50;99.90;;;;;;4874067;29;20204;-79
2024/02/24 09:03:41;;;;;;;9.17;8.67;;;10.60;99.90;;;;;;4875606;29;20366;-79
2024/02/24 09:06:08;;;;;;;10.33;9.77;;;10.90;99.90;;;;;;4876613;29;20219;-79
2024/02/24 09:08:37;;;;;;;9.60;9.00;;;11.10;99.90;;;;;;4877508;29;20218;-79
2024/02/24 09:11:04;;;;;;;9.57;9.03;;;11.20;99.90;;;;;;4878202;29;20637;-79
2024/02/24 09:13:31;;;;;;;8.97;8.37;;;11.20;99.90;;;;;;4880291;29;20280;-78
2024/02/24 09:15:59;;;;;;;9.20;8.70;;;11.40;99.90;;;;;;4879633;29;20232;-77
2024/02/24 09:18:27;;;;;;;9.90;9.40;;;11.50;99.90;;;;;;4879265;29;20604;-79
2024/02/24 09:20:54;;;;;;;9.83;9.23;;;11.60;99.90;;;;;;4876493;29;20205;-80
2024/02/24 09:23:21;;;;;;;9.80;9.30;;;11.70;99.90;;;;;;4873135;29;20335;-77
2024/02/24 09:25:48;;;;;;;9.90;9.40;;;11.90;99.90;;;;;;4874614;29;20197;-78
2024/02/24 09:28:14;;;;;;;9.73;9.23;;;11.90;99.90;;;;;;4875284;29;20206;-77
2024/02/24 09:30:41;;;;;;;9.30;8.80;;;11.90;99.90;;;;;;4882509;29;20205;-78
2024/02/24 09:33:09;;;;;;;9.67;9.10;;;12.10;99.90;;;;;;4881043;29;20241;-76
2024/02/24 09:35:36;;;;;;;9.00;8.50;;;12.00;99.90;;;;;;4880305;29;20637;-78
2024/02/24 09:38:03;;;;;;;9.40;8.90;;;12.00;99.90;;;;;;4879288;29;20674;-79
2024/02/24 09:40:35;;;;;;;9.80;9.20;;;12.10;99.90;;;;;;4878411;29;20212;-82
2024/02/24 09:43:04;;;;;;;10.07;9.40;;;12.10;99.90;;;;;;4879492;29;20732;-79
2024/02/24 09:45:35;;;;;;;4.70;4.50;;;12.30;99.90;;;;;;4877869;29;20217;-79
2024/02/24 09:48:02;;;;;;;5.20;4.90;;;12.50;99.90;;;;;;4877079;29;20212;-79
2024/02/24 09:50:30;;;;;;;4.97;4.60;;;12.70;99.90;;;;;;4877908;29;20209;-79
2024/02/24 09:52:57;;;;;;;4.37;4.17;;;12.70;99.90;;;;;;4877737;29;20239;-79
2024/02/24 09:55:24;;;;;;;7.97;7.47;;;12.80;99.90;;;;;;4879009;29;20206;-79
2024/02/24 09:57:54;;;;;;;7.67;7.17;;;12.60;99.90;;;;;;4878151;29;20682;-80
2024/02/24 10:00:21;;;;;;;8.57;8.07;;;12.30;99.90;;;;;;4878920;29;20617;-79
2024/02/24 10:02:48;;;;;;;2.67;2.57;;;12.20;99.90;;;;;;4878887;29;20229;-79
2024/02/24 10:05:15;;;;;;;4.57;4.37;;;11.90;99.90;;;;;;4877862;29;20233;-79
2024/02/24 10:07:44;;;;;;;9.13;8.57;;;11.90;99.90;;;;;;4878957;29;20272;-79
2024/02/24 10:10:13;;;;;;;8.47;8.07;;;11.90;99.90;;;;;;4877433;29;20292;-79
2024/02/24 10:12:40;;;;;;;10.70;10.10;;;12.00;99.90;;;;;;4878589;29;20221;-79
2024/02/24 10:15:07;;;;;;;7.60;7.20;;;12.00;99.90;;;;;;4878776;29;20198;-79
2024/02/24 10:17:34;;;;;;;7.40;7.00;;;11.90;99.90;;;;;;4878826;29;20273;-79
2024/02/24 10:20:02;;;;;;;7.63;7.23;;;11.60;99.90;;;;;;4877378;29;20632;-79
2024/02/24 10:22:29;;;;;;;7.17;6.73;;;11.60;99.90;;;;;;4877136;29;20227;-79
2024/02/24 10:24:58;;;;;;;7.50;7.10;;;11.30;99.90;;;;;;4878746;29;20221;-79
2024/02/24 10:27:27;;;;;;;7.40;7.00;;;11.10;99.90;;;;;;4878503;29;20209;-79
2024/02/24 10:29:57;;;;;;;7.20;6.80;;;10.90;99.90;;;;;;4871449;29;20577;-78
2024/02/24 10:32:25;;;;;;;7.60;7.00;;;10.70;99.90;;;;;;4878450;29;20240;-78
2024/02/24 10:34:53;;;;;;;8.50;8.00;;;10.50;99.90;;;;;;4878714;29;20258;-79
2024/02/24 10:37:20;;;;;;;7.87;7.37;;;10.40;99.90;;;;;;4877136;29;20678;-79
2024/02/24 10:39:50;;;;;;;8.60;8.10;;;10.40;99.90;;;;;;4876354;29;20208;-79
2024/02/24 10:42:19;;;;;;;8.00;7.60;;;10.50;99.90;;;;;;4878356;29;20253;-79
2024/02/24 10:44:46;;;;;;;8.40;7.90;;;10.80;99.90;;;;;;4873332;29;20256;-79
2024/02/24 10:47:13;;;;;;;8.20;7.77;;;11.10;99.90;;;;;;4878770;29;20229;-79
2024/02/24 10:49:40;;;;;;;8.00;7.60;;;11.30;99.90;;;;;;4878928;29;20202;-79
2024/02/24 10:52:09;;;;;;;7.60;7.20;;;11.50;99.90;;;;;;4877269;29;20245;-79
2024/02/24 10:54:39;;;;;;;7.70;7.30;;;11.90;99.90;;;;;;4877123;29;20205;-79
2024/02/24 10:57:06;;;;;;;7.83;7.33;;;12.10;99.90;;;;;;4878471;29;20224;-79
2024/02/24 10:59:35;;;;;;;7.27;6.87;;;12.00;99.90;;;;;;4877889;29;20233;-79
2024/02/24 11:02:03;;;;;;;7.60;7.20;;;12.10;99.90;;;;;;4877090;29;20221;-79
2024/02/24 11:04:33;;;;;;;8.53;8.03;;;12.20;99.90;;;;;;4877143;29;20654;-79
2024/02/24 11:07:00;;;;;;;7.47;7.00;;;12.30;99.90;;;;;;4876982;29;20707;-79
2024/02/24 11:09:30;;;;;;;7.47;7.07;;;12.40;99.90;;;;;;4878035;29;20209;-79
2024/02/24 11:12:04;;;;;;;7.57;7.17;;;12.30;99.90;;;;;;4876969;29;20231;-79
2024/02/24 11:14:31;;;;;;;7.63;7.20;;;12.30;99.90;;;;;;4878147;29;20247;-79
2024/02/24 11:16:59;;;;;;;8.33;7.77;;;12.10;99.90;;;;;;4876678;29;20221;-79
2024/02/24 11:19:43;;;;;;;7.40;7.00;;;12.00;99.90;;;;;;4876866;29;20274;-78
2024/02/24 11:22:12;;;;;;;7.80;7.40;;;12.00;99.90;;;;;;4870977;29;20231;-79
2024/02/24 11:24:39;;;;;;;7.80;7.30;;;12.10;99.90;;;;;;4890694;29;20226;-79
2024/02/24 11:27:07;;;;;;;7.63;7.23;;;12.20;99.90;;;;;;4877976;29;20210;-79
2024/02/24 11:29:35;;;;;;;7.60;7.20;;;12.20;99.90;;;;;;4876429;29;20208;-79
2024/02/24 11:32:22;;;;;;;8.10;7.60;;;12.20;99.90;;;;;;4876484;29;20234;-78
2024/02/24 11:34:50;;;;;;;8.00;7.60;;;12.10;99.90;;;;;;4876523;29;20231;-79
2024/02/24 11:37:18;;;;;;;7.90;7.50;;;12.00;99.90;;;;;;4877707;29;20236;-79
2024/02/24 11:39:47;;;;;;;7.40;7.00;;;11.80;99.90;;;;;;4876060;29;20201;-79
2024/02/24 11:42:14;;;;;;;7.80;7.40;;;11.60;99.90;;;;;;4876659;29;20630;-79
2024/02/24 11:44:44;;;;;;;7.70;7.30;;;11.30;99.90;;;;;;4876088;29;20304;-78
2024/02/24 11:47:11;;;;;;;7.43;7.03;;;11.20;99.90;;;;;;4877962;29;20225;-79
2024/02/24 11:49:46;;;;;;;7.50;7.10;;;11.20;99.90;;;;;;4877325;29;20708;-79
2024/02/24 11:52:15;;;;;;;7.03;6.63;;;11.10;99.90;;;;;;4881325;29;20230;-79
2024/02/24 11:54:43;;;;;;;7.67;7.27;;;11.00;99.90;;;;;;4880187;29;20283;-79
2024/02/24 11:57:10;;;;;;;7.90;7.50;;;10.90;99.90;;;;;;4876398;29;20708;-79
2024/02/24 11:59:38;;;;;;;7.60;7.20;;;10.80;99.90;;;;;;4881149;29;20200;-78
2024/02/24 12:02:05;;;;;;;7.80;7.40;;;10.80;99.90;;;;;;4882944;29;20220;-79
2024/02/24 12:04:32;;;;;;;7.80;7.30;;;10.90;99.90;;;;;;4879857;29;20254;-79
2024/02/24 12:07:01;;;;;;;7.43;7.03;;;11.00;99.90;;;;;;4880115;29;20208;-79
2024/02/24 12:09:28;;;;;;;7.70;7.20;;;11.00;99.90;;;;;;4879596;29;20739;-77
2024/02/24 12:11:56;;;;;;;7.50;7.10;;;10.90;99.90;;;;;;4879921;29;20231;-79
2024/02/24 12:14:26;;;;;;;7.77;7.30;;;11.00;99.90;;;;;;4881288;29;20680;-79
2024/02/24 12:16:56;;;;;;;7.47;7.10;;;11.00;99.90;;;;;;4880022;29;20208;-78
2024/02/24 12:19:25;;;;;;;7.40;7.00;;;10.90;99.90;;;;;;4881902;29;20278;-79
2024/02/24 12:21:51;;;;;;;7.40;6.97;;;10.70;99.90;;;;;;4882365;29;20796;-79
2024/02/24 12:24:28;;;;;;;7.80;7.30;;;10.60;99.90;;;;;;4883616;29;20216;-76
2024/02/24 12:26:58;;;;;;;7.53;7.13;;;10.60;99.90;;;;;;4878643;29;20638;-79
2024/02/24 12:29:25;;;;;;;7.70;7.30;;;10.70;99.90;;;;;;4883070;29;20207;-80
2024/02/24 12:31:53;;;;;;;7.73;7.27;;;10.90;99.90;;;;;;4884961;29;20294;-80
2024/02/24 12:34:20;;;;;;;7.70;7.20;;;11.10;99.90;;;;;;4884783;29;20201;-78
2024/02/24 12:36:47;;;;;;;7.70;7.30;;;11.20;99.90;;;;;;4880457;29;20724;-79
2024/02/24 12:39:17;;;;;;;7.00;6.60;;;11.40;99.90;;;;;;4880620;29;20577;-78
2024/02/24 12:41:45;;;;;;;7.40;7.00;;;11.40;99.90;;;;;;4882163;29;20225;-78